createdAt,value
2018-12-05T00:02:08.943Z,19.23
2018-12-05T00:04:37.483Z,15.67
2018-12-05T00:07:06.041Z,23.93
2018-12-05T00:09:34.527Z,14.43
2018-12-05T00:12:03.201Z,21.50
2018-12-05T00:14:31.765Z,20.53
2018-12-05T00:17:00.577Z,14.07
2018-12-05T00:19:29.182Z,17.83
2018-12-05T00:21:57.825Z,15.20
2018-12-05T00:24:26.370Z,16.40
2018-12-05T00:26:54.921Z,17.23
2018-12-05T00:29:23.456Z,14.73
2018-12-05T00:31:52.025Z,15.33
2018-12-05T00:34:20.525Z,29.63
2018-12-05T00:36:49.084Z,17.47
2018-12-05T00:39:17.616Z,18.07
2018-12-05T00:41:46.116Z,25.90
2018-12-05T00:44:14.643Z,22.97
2018-12-05T00:46:43.191Z,19.87
2018-12-05T00:49:11.844Z,21.33
2018-12-05T00:51:40.489Z,21.23
2018-12-05T00:54:09.094Z,17.20
2018-12-05T00:56:37.604Z,17.97
2018-12-05T00:59:06.218Z,11.50
2018-12-05T01:01:34.830Z,19.63
2018-12-05T01:04:06.473Z,20.40
2018-12-05T01:06:35.043Z,15.87
2018-12-05T01:09:05.658Z,16.27
2018-12-05T01:11:34.267Z,15.33
2018-12-05T01:14:02.866Z,18.50
2018-12-05T01:16:31.483Z,16.10
2018-12-05T01:19:00.004Z,18.03
2018-12-05T01:21:35.236Z,12.03
2018-12-05T01:24:03.897Z,16.97
2018-12-05T01:26:32.436Z,14.63
2018-12-05T01:29:00.969Z,14.03
2018-12-05T01:31:29.449Z,16.80
2018-12-05T01:33:57.985Z,15.27
2018-12-05T01:36:26.679Z,14.50
2018-12-05T01:38:55.277Z,19.60
2018-12-05T01:41:23.781Z,14.50
2018-12-05T01:43:52.310Z,13.90
2018-12-05T01:46:20.799Z,15.70
2018-12-05T01:48:49.288Z,16.73
2018-12-05T01:51:17.924Z,18.30
2018-12-05T01:53:46.527Z,23.17
2018-12-05T01:56:21.895Z,14.03
2018-12-05T01:58:50.803Z,17.47
2018-12-05T02:01:19.299Z,15.97
2018-12-05T02:03:47.893Z,15.93
2018-12-05T02:06:16.464Z,11.07
2018-12-05T02:08:45.046Z,12.70
2018-12-05T02:11:13.600Z,14.30
2018-12-05T02:13:42.157Z,19.07
2018-12-05T02:16:10.660Z,18.30
2018-12-05T02:18:39.342Z,23.17
2018-12-05T02:21:07.824Z,21.30
2018-12-05T02:23:36.342Z,16.73
2018-12-05T02:26:05.094Z,14.47
2018-12-05T02:28:33.614Z,16.00
2018-12-05T02:31:02.243Z,12.10
2018-12-05T02:33:30.768Z,18.67
2018-12-05T02:35:59.269Z,15.10
2018-12-05T02:38:27.813Z,16.53
2018-12-05T02:40:56.357Z,15.10
2018-12-05T02:43:24.845Z,16.17
2018-12-05T02:45:53.401Z,15.90
2018-12-05T02:48:21.952Z,23.73
2018-12-05T02:50:50.439Z,16.73
2018-12-05T02:53:18.975Z,18.87
2018-12-05T02:55:47.537Z,12.43
2018-12-05T02:58:16.027Z,13.60
2018-12-05T03:00:44.547Z,23.57
2018-12-05T03:03:13.108Z,12.37
2018-12-05T03:05:41.738Z,16.87
2018-12-05T03:08:10.217Z,13.40
2018-12-05T03:10:38.739Z,11.40
2018-12-05T03:13:07.250Z,10.63
2018-12-05T03:15:35.750Z,16.57
2018-12-05T03:18:04.384Z,17.00
2018-12-05T03:20:32.895Z,9.87
2018-12-05T03:23:01.442Z,19.23
2018-12-05T03:25:30.034Z,12.40
2018-12-05T03:27:58.574Z,16.73
2018-12-05T03:30:27.109Z,16.83
2018-12-05T03:32:55.658Z,11.87
2018-12-05T03:35:29.407Z,14.70
2018-12-05T03:37:58.008Z,15.23
2018-12-05T03:40:26.520Z,13.23
2018-12-05T03:42:55.020Z,16.10
2018-12-05T03:45:23.687Z,11.03
2018-12-05T03:47:52.172Z,13.97
2018-12-05T03:50:20.697Z,16.33
2018-12-05T03:52:49.259Z,16.47
2018-12-05T03:55:17.756Z,15.57
2018-12-05T03:57:46.260Z,22.53
2018-12-05T04:00:14.826Z,14.67
2018-12-05T04:02:43.344Z,13.10
2018-12-05T04:05:11.934Z,15.60
2018-12-05T04:07:40.608Z,20.10
2018-12-05T04:10:09.349Z,12.73
2018-12-05T04:12:40.811Z,16.97
2018-12-05T04:15:08.685Z,16.73
2018-12-05T04:17:37.260Z,13.20
2018-12-05T04:20:05.849Z,15.10
2018-12-05T04:22:34.426Z,12.97
2018-12-05T04:25:02.911Z,22.93
2018-12-05T04:27:31.398Z,14.63
2018-12-05T04:29:59.913Z,18.60
2018-12-05T04:32:28.398Z,13.67
2018-12-05T04:34:56.920Z,18.87
2018-12-05T04:37:25.451Z,15.73
2018-12-05T04:39:53.964Z,14.63
2018-12-05T04:42:22.454Z,21.17
2018-12-05T04:44:50.997Z,12.13
2018-12-05T04:47:19.498Z,13.83
2018-12-05T04:49:48.064Z,10.00
2018-12-05T04:52:16.567Z,17.30
2018-12-05T04:54:45.047Z,10.83
2018-12-05T04:57:13.585Z,14.50
2018-12-05T04:59:42.097Z,16.87
2018-12-05T05:02:10.555Z,15.97
2018-12-05T05:04:39.083Z,17.03
2018-12-05T05:07:07.595Z,18.57
2018-12-05T05:09:36.145Z,14.83
2018-12-05T05:12:04.751Z,20.60
2018-12-05T05:14:33.293Z,18.50
2018-12-05T05:17:01.808Z,18.40
2018-12-05T05:19:30.321Z,12.13
2018-12-05T05:21:59.049Z,20.83
2018-12-05T05:24:27.509Z,14.93
2018-12-05T05:26:56.066Z,13.73
2018-12-05T05:29:24.611Z,15.43
2018-12-05T05:31:53.083Z,17.57
2018-12-05T05:34:21.609Z,18.27
2018-12-05T05:36:50.162Z,20.30
2018-12-05T05:39:18.650Z,18.73
2018-12-05T05:41:47.284Z,21.63
2018-12-05T05:44:15.808Z,21.50
2018-12-05T05:46:44.304Z,20.10
2018-12-05T05:49:12.807Z,32.13
2018-12-05T05:51:41.280Z,17.70
2018-12-05T05:54:09.824Z,22.20
2018-12-05T05:56:38.366Z,24.90
2018-12-05T05:59:06.895Z,25.87
2018-12-05T06:01:35.433Z,25.70
2018-12-05T06:04:06.125Z,28.20
2018-12-05T06:06:34.682Z,26.13
2018-12-05T06:09:04.338Z,27.50
2018-12-05T06:11:32.814Z,23.50
2018-12-05T06:14:01.451Z,20.57
2018-12-05T06:16:29.985Z,17.83
2018-12-05T06:18:58.482Z,19.37
2018-12-05T06:21:27.033Z,17.13
2018-12-05T06:23:56.295Z,19.00
2018-12-05T06:26:24.781Z,20.30
2018-12-05T06:28:53.359Z,20.87
2018-12-05T06:31:21.955Z,20.77
2018-12-05T06:33:50.478Z,21.50
2018-12-05T06:36:19.022Z,26.20
2018-12-05T06:38:47.501Z,33.07
2018-12-05T06:41:16.283Z,37.67
2018-12-05T06:43:44.845Z,31.97
2018-12-05T06:46:14.189Z,46.03
2018-12-05T06:48:42.705Z,47.57
2018-12-05T06:51:11.296Z,48.27
2018-12-05T06:53:39.814Z,41.60
2018-12-05T06:56:08.388Z,54.83
2018-12-05T06:58:37.142Z,53.07
2018-12-05T07:01:07.801Z,48.93
2018-12-05T07:03:36.363Z,42.13
2018-12-05T07:06:04.986Z,33.07
2018-12-05T07:08:33.670Z,28.83
2018-12-05T07:11:03.146Z,28.10
2018-12-05T07:13:31.737Z,27.60
2018-12-05T07:16:00.249Z,28.63
2018-12-05T07:18:28.719Z,21.67
2018-12-05T07:20:57.259Z,25.57
2018-12-05T07:23:25.875Z,43.63
2018-12-05T07:25:54.408Z,29.27
2018-12-05T07:28:22.962Z,37.43
2018-12-05T07:30:51.502Z,34.60
2018-12-05T07:33:20.020Z,47.70
2018-12-05T07:35:48.575Z,41.40
2018-12-05T07:38:19.596Z,28.33
2018-12-05T07:40:47.634Z,28.10
2018-12-05T07:43:16.188Z,32.50
2018-12-05T07:45:44.720Z,32.03
2018-12-05T07:48:13.256Z,26.83
2018-12-05T07:50:42.008Z,31.73
2018-12-05T07:53:10.510Z,37.93
2018-12-05T07:55:39.004Z,24.60
2018-12-05T07:58:07.537Z,25.70
2018-12-05T08:00:36.158Z,25.57
2018-12-05T08:03:04.667Z,40.93
2018-12-05T08:05:33.164Z,45.27
2018-12-05T08:08:01.766Z,41.70
2018-12-05T08:10:30.289Z,32.90
2018-12-05T08:12:58.925Z,32.80
2018-12-05T08:15:27.436Z,37.43
2018-12-05T08:17:55.925Z,26.43
2018-12-05T08:20:24.419Z,29.43
2018-12-05T08:22:52.884Z,28.37
2018-12-05T08:25:21.422Z,30.53
2018-12-05T08:27:50.092Z,33.93
2018-12-05T08:30:18.664Z,36.40
2018-12-05T08:32:47.192Z,26.67
2018-12-05T08:35:15.710Z,24.97
2018-12-05T08:37:44.262Z,28.47
2018-12-05T08:40:12.752Z,25.87
2018-12-05T08:42:42.187Z,30.67
2018-12-05T08:45:10.719Z,39.30
2018-12-05T08:47:39.273Z,42.13
2018-12-05T08:50:07.999Z,48.47
2018-12-05T08:52:36.510Z,50.03
2018-12-05T08:55:05.369Z,43.87
2018-12-05T08:57:33.929Z,35.63
2018-12-05T09:00:03.267Z,39.77
2018-12-05T09:02:31.769Z,37.73
2018-12-05T09:05:00.457Z,55.67
2018-12-05T09:07:29.001Z,62.53
2018-12-05T09:09:57.547Z,45.57
2018-12-05T09:12:26.085Z,53.60
2018-12-05T09:14:54.746Z,41.20
2018-12-05T09:17:23.254Z,45.33
2018-12-05T09:19:51.862Z,36.27
2018-12-05T09:22:20.450Z,33.80
2018-12-05T09:24:48.940Z,41.83
2018-12-05T09:27:17.569Z,31.90
2018-12-05T09:29:46.080Z,41.03
2018-12-05T09:32:14.579Z,36.43
2018-12-05T09:34:43.141Z,32.57
2018-12-05T09:37:11.681Z,32.10
2018-12-05T09:39:40.199Z,52.20
2018-12-05T09:42:08.879Z,30.50
2018-12-05T09:44:37.411Z,22.33
2018-12-05T09:47:06.012Z,25.80
2018-12-05T09:49:34.643Z,26.33
2018-12-05T09:52:03.153Z,23.43
2018-12-05T09:54:31.707Z,20.50
2018-12-05T09:57:00.439Z,21.77
2018-12-05T09:59:29.115Z,22.20
2018-12-05T10:01:57.727Z,27.33
2018-12-05T10:04:26.337Z,24.55
2018-12-05T10:06:54.861Z,21.07
2018-12-05T10:09:23.370Z,22.23
2018-12-05T10:11:52.140Z,19.13
2018-12-05T10:14:20.668Z,23.13
2018-12-05T10:16:49.738Z,20.43
2018-12-05T10:19:18.244Z,20.53
2018-12-05T10:21:46.830Z,24.70
2018-12-05T10:24:15.366Z,19.63
2018-12-05T10:26:43.899Z,25.30
2018-12-05T10:29:12.414Z,25.40
2018-12-05T10:31:43.955Z,19.33
2018-12-05T10:34:12.361Z,31.70
2018-12-05T10:36:40.840Z,50.80
2018-12-05T10:39:09.884Z,32.53
2018-12-05T10:41:39.083Z,30.33
2018-12-05T10:44:07.623Z,27.63
2018-12-05T10:46:36.229Z,48.53
2018-12-05T10:49:05.208Z,40.17
2018-12-05T10:51:33.687Z,52.57
2018-12-05T10:54:02.145Z,36.97
2018-12-05T10:56:30.715Z,33.07
2018-12-05T10:58:59.351Z,35.10
2018-12-05T11:02:31.841Z,36.10
2018-12-05T11:05:05.825Z,28.33
2018-12-05T11:07:39.737Z,33.57
2018-12-05T11:10:13.639Z,29.07
2018-12-05T11:12:47.422Z,39.50
2018-12-05T11:15:21.290Z,39.20
2018-12-05T11:18:53.860Z,32.47
2018-12-05T11:21:27.898Z,28.47
2018-12-05T11:25:00.331Z,36.43
2018-12-05T11:27:29.027Z,38.63
2018-12-05T11:29:57.544Z,31.83
2018-12-05T11:32:26.285Z,36.77
2018-12-05T11:34:54.773Z,36.87
2018-12-05T11:37:23.757Z,33.73
2018-12-05T11:39:52.323Z,46.27
2018-12-05T11:42:20.835Z,44.67
2018-12-05T11:44:49.393Z,30.07
2018-12-05T11:47:17.930Z,24.93
2018-12-05T11:49:46.431Z,23.80
2018-12-05T11:52:14.939Z,38.17
2018-12-05T11:54:43.585Z,24.37
2018-12-05T11:57:12.210Z,31.90
2018-12-05T11:59:40.682Z,32.73
2018-12-05T12:02:09.251Z,42.73
2018-12-05T12:04:37.811Z,29.20
2018-12-05T12:07:06.330Z,21.30
2018-12-05T12:09:34.839Z,21.53
2018-12-05T12:12:03.542Z,19.73
2018-12-05T12:14:32.990Z,19.87
2018-12-05T12:17:02.138Z,16.63
2018-12-05T12:19:30.755Z,37.00
2018-12-05T12:21:59.213Z,27.43
2018-12-05T12:24:34.721Z,28.23
2018-12-05T12:26:58.355Z,23.90
2018-12-05T12:29:26.876Z,28.23
2018-12-05T12:31:55.477Z,30.00
2018-12-05T12:34:23.990Z,28.80
2018-12-05T12:36:52.503Z,11.77
2018-12-05T12:39:21.072Z,16.07
2018-12-05T12:41:49.592Z,19.27
2018-12-05T12:44:18.128Z,16.97
2018-12-05T12:46:46.643Z,18.63
2018-12-05T12:49:15.127Z,18.83
2018-12-05T12:51:43.616Z,22.53
2018-12-05T12:54:12.169Z,15.73
2018-12-05T12:56:40.753Z,16.07
2018-12-05T12:59:09.242Z,14.27
2018-12-05T13:01:37.888Z,17.07
2018-12-05T13:04:06.357Z,16.53
2018-12-05T13:06:34.965Z,21.63
2018-12-05T13:09:05.417Z,13.17
2018-12-05T13:11:33.901Z,20.10
2018-12-05T13:14:02.425Z,21.57
2018-12-05T13:16:30.965Z,19.47
2018-12-05T13:18:59.511Z,16.37
2018-12-05T13:21:27.984Z,13.20
2018-12-05T13:23:56.539Z,16.03
2018-12-05T13:26:25.102Z,17.50
2018-12-05T13:28:54.383Z,14.50
2018-12-05T13:31:22.965Z,13.77
2018-12-05T13:33:51.408Z,18.30
2018-12-05T13:36:19.920Z,11.87
2018-12-05T13:38:48.457Z,16.27
2018-12-05T13:41:16.972Z,19.27
2018-12-05T13:43:45.611Z,12.63
2018-12-05T13:46:14.142Z,18.50
2018-12-05T13:48:42.621Z,18.37
2018-12-05T13:51:11.371Z,14.17
2018-12-05T13:53:39.921Z,20.70
2018-12-05T13:56:08.485Z,13.37
2018-12-05T13:58:36.976Z,15.17
2018-12-05T14:01:05.514Z,17.13
2018-12-05T14:03:34.043Z,19.13
2018-12-05T14:06:02.672Z,12.83
2018-12-05T14:08:31.178Z,21.67
2018-12-05T14:10:59.646Z,13.10
2018-12-05T14:13:28.108Z,12.43
2018-12-05T14:15:56.737Z,17.33
2018-12-05T14:18:25.349Z,15.87
2018-12-05T14:20:53.823Z,13.97
2018-12-05T14:23:22.349Z,14.70
2018-12-05T14:25:50.871Z,22.53
2018-12-05T14:28:19.395Z,14.17
2018-12-05T14:30:47.957Z,17.47
2018-12-05T14:33:16.423Z,19.33
2018-12-05T14:35:44.988Z,18.47
2018-12-05T14:38:13.544Z,17.80
2018-12-05T14:40:42.307Z,15.67
2018-12-05T14:43:10.824Z,17.70
2018-12-05T14:45:39.449Z,13.83
2018-12-05T14:48:07.945Z,12.60
2018-12-05T14:50:36.566Z,25.00
2018-12-05T14:53:05.499Z,15.07
2018-12-05T14:55:33.990Z,14.00
2018-12-05T14:58:02.480Z,16.63
2018-12-05T15:00:31.078Z,20.97
2018-12-05T15:02:59.562Z,22.37
2018-12-05T15:05:28.064Z,13.67
2018-12-05T15:07:56.740Z,16.40
2018-12-05T15:10:25.225Z,24.10
2018-12-05T15:12:53.728Z,12.00
2018-12-05T15:15:22.347Z,14.67
2018-12-05T15:17:50.847Z,14.67
2018-12-05T15:20:19.456Z,21.27
2018-12-05T15:22:48.009Z,13.43
2018-12-05T15:25:16.488Z,16.87
2018-12-05T15:27:45.159Z,14.33
2018-12-05T15:30:13.819Z,15.47
2018-12-05T15:32:42.353Z,13.60
2018-12-05T15:35:10.886Z,15.00
2018-12-05T15:37:39.378Z,12.93
2018-12-05T15:40:08.261Z,11.13
2018-12-05T15:42:36.797Z,14.10
2018-12-05T15:45:06.982Z,20.27
2018-12-05T15:47:36.380Z,14.17
2018-12-05T15:50:06.825Z,14.90
2018-12-05T15:52:35.518Z,17.30
2018-12-05T15:55:04.331Z,14.00
2018-12-05T15:57:32.870Z,17.67
2018-12-05T16:00:01.551Z,10.40
2018-12-05T16:02:30.089Z,13.53
2018-12-05T16:04:58.611Z,15.73
2018-12-05T16:07:27.126Z,15.87
2018-12-05T16:09:55.661Z,11.27
2018-12-05T16:12:24.254Z,13.63
2018-12-05T16:14:53.019Z,24.33
2018-12-05T16:17:21.554Z,23.73
2018-12-05T16:19:50.126Z,16.03
2018-12-05T16:22:18.698Z,16.13
2018-12-05T16:24:47.224Z,17.00
2018-12-05T16:27:15.798Z,18.67
2018-12-05T16:29:44.320Z,12.00
2018-12-05T16:32:13.016Z,19.10
2018-12-05T16:34:41.765Z,15.63
2018-12-05T16:37:10.348Z,18.20
2018-12-05T16:39:38.874Z,21.57
2018-12-05T16:42:07.490Z,17.93
2018-12-05T16:44:36.079Z,13.87
2018-12-05T16:47:04.577Z,17.37
2018-12-05T16:49:33.371Z,14.80
2018-12-05T16:52:02.283Z,16.90
2018-12-05T16:54:31.274Z,18.73
2018-12-05T16:56:59.793Z,17.77
2018-12-05T16:59:28.331Z,14.57
2018-12-05T17:01:56.848Z,12.47
2018-12-05T17:04:25.419Z,23.00
2018-12-05T17:06:53.946Z,18.43
2018-12-05T17:09:25.976Z,19.63
2018-12-05T17:11:53.036Z,19.40
2018-12-05T17:14:21.690Z,14.00
2018-12-05T17:16:50.354Z,13.43
2018-12-05T17:19:18.966Z,14.90
2018-12-05T17:21:47.494Z,14.67
2018-12-05T17:24:15.994Z,10.57
2018-12-05T17:26:44.510Z,13.43
2018-12-05T17:29:13.054Z,11.07
2018-12-05T17:31:41.601Z,12.40
2018-12-05T17:34:10.071Z,14.77
2018-12-05T17:36:38.757Z,10.87
2018-12-05T17:39:08.948Z,13.10
2018-12-05T17:41:37.513Z,11.87
2018-12-05T17:44:06.164Z,22.67
2018-12-05T17:46:34.693Z,13.43
2018-12-05T17:49:03.237Z,16.90
2018-12-05T17:51:31.836Z,17.23
2018-12-05T17:54:00.394Z,12.50
2018-12-05T17:56:28.962Z,17.30
2018-12-05T17:58:57.510Z,14.90
2018-12-05T18:01:26.110Z,13.13
2018-12-05T18:03:54.717Z,15.70
2018-12-05T18:06:24.286Z,11.87
2018-12-05T18:08:53.059Z,15.60
2018-12-05T18:11:21.779Z,16.77
2018-12-05T18:13:50.545Z,16.03
2018-12-05T18:16:19.243Z,16.73
2018-12-05T18:18:48.001Z,9.67
2018-12-05T18:21:16.623Z,8.50
2018-12-05T18:23:45.381Z,19.03
2018-12-05T18:26:13.916Z,15.67
2018-12-05T18:28:42.540Z,11.50
2018-12-05T18:31:11.069Z,17.00
2018-12-05T18:33:39.703Z,16.43
2018-12-05T18:36:08.354Z,13.00
2018-12-05T18:38:37.056Z,14.87
2018-12-05T18:41:06.206Z,17.90
2018-12-05T18:43:35.076Z,13.07
2018-12-05T18:46:03.655Z,11.13
2018-12-05T18:48:32.365Z,15.20
2018-12-05T18:51:01.919Z,19.07
2018-12-05T18:53:30.547Z,12.67
2018-12-05T18:55:59.616Z,15.73
2018-12-05T18:58:28.266Z,14.97
2018-12-05T19:00:56.988Z,17.93
2018-12-05T19:03:25.533Z,12.87
2018-12-05T19:05:54.869Z,16.20
2018-12-05T19:08:23.433Z,13.67
2018-12-05T19:10:52.037Z,15.43
2018-12-05T19:13:21.565Z,16.97
2018-12-05T19:15:50.252Z,11.27
2018-12-05T19:18:18.846Z,14.13
2018-12-05T19:20:47.528Z,17.77
2018-12-05T19:23:16.114Z,14.77
2018-12-05T19:25:44.710Z,21.03
2018-12-05T19:28:13.262Z,14.73
2018-12-05T19:30:42.012Z,15.50
2018-12-05T19:33:10.539Z,19.90
2018-12-05T19:35:39.755Z,14.23
2018-12-05T19:38:08.304Z,15.90
2018-12-05T19:40:37.068Z,13.47
2018-12-05T19:43:05.682Z,12.20
2018-12-05T19:45:34.249Z,19.33
2018-12-05T19:48:02.862Z,15.70
2018-12-05T19:50:31.490Z,16.93
2018-12-05T19:53:00.053Z,13.57
2018-12-05T19:55:35.317Z,12.87
2018-12-05T19:58:03.980Z,15.60
2018-12-05T20:00:32.640Z,14.63
2018-12-05T20:03:01.350Z,10.77
2018-12-05T20:05:30.326Z,14.00
2018-12-05T20:07:58.962Z,12.30
2018-12-05T20:10:27.720Z,18.67
2018-12-05T20:12:56.342Z,11.03
2018-12-05T20:15:24.868Z,21.50
2018-12-05T20:17:53.810Z,24.63
2018-12-05T20:20:22.469Z,15.47
2018-12-05T20:22:51.041Z,12.33
2018-12-05T20:25:19.928Z,9.53
2018-12-05T20:27:48.606Z,15.97
2018-12-05T20:30:17.204Z,16.77
2018-12-05T20:32:48.017Z,11.73
2018-12-05T20:35:16.713Z,11.30
2018-12-05T20:37:45.315Z,12.83
2018-12-05T20:40:14.630Z,14.07
2018-12-05T20:42:43.390Z,11.37
2018-12-05T20:45:12.300Z,9.67
2018-12-05T20:47:40.988Z,12.47
2018-12-05T20:50:09.808Z,11.13
2018-12-05T20:52:38.465Z,13.97
2018-12-05T20:55:07.373Z,13.37
2018-12-05T20:57:35.948Z,15.93
2018-12-05T21:00:05.415Z,11.40
2018-12-05T21:02:34.087Z,17.60
2018-12-05T21:05:02.917Z,10.73
2018-12-05T21:07:31.520Z,13.63
2018-12-05T21:10:00.261Z,15.27
2018-12-05T21:12:29.030Z,23.90
2018-12-05T21:15:17.560Z,10.20
2018-12-05T21:18:20.628Z,17.07
2018-12-05T21:20:50.227Z,11.77
2018-12-05T21:23:19.060Z,11.90
2018-12-05T21:25:48.285Z,11.77
2018-12-05T21:28:16.900Z,9.93
2018-12-05T21:30:46.405Z,11.20
2018-12-05T21:33:14.993Z,12.87
2018-12-05T21:35:43.606Z,10.03
2018-12-05T21:38:12.514Z,10.20
2018-12-05T21:40:41.080Z,11.00
2018-12-05T21:43:09.763Z,16.17
2018-12-05T21:45:38.362Z,14.27
2018-12-05T21:48:07.014Z,16.47
2018-12-05T21:50:36.473Z,13.50
2018-12-05T21:53:05.234Z,16.73
2018-12-05T21:55:33.842Z,14.97
2018-12-05T21:58:02.408Z,11.50
2018-12-05T22:00:31.096Z,10.80
2018-12-05T22:02:59.690Z,13.43
2018-12-05T22:05:28.541Z,14.27
2018-12-05T22:07:57.184Z,16.10
2018-12-05T22:10:25.906Z,10.93
2018-12-05T22:12:54.494Z,13.10
2018-12-05T22:15:23.140Z,10.17
2018-12-05T22:17:51.750Z,13.50
2018-12-05T22:20:20.379Z,10.37
2018-12-05T22:22:48.976Z,12.50
2018-12-05T22:25:17.735Z,9.40
2018-12-05T22:27:46.483Z,8.30
2018-12-05T22:30:15.109Z,10.23
2018-12-05T22:32:43.651Z,12.20
2018-12-05T22:35:12.288Z,10.47
2018-12-05T22:37:40.906Z,15.07
2018-12-05T22:40:09.944Z,9.80
2018-12-05T22:42:38.888Z,11.97
2018-12-05T22:45:07.630Z,12.50
2018-12-05T22:47:36.316Z,9.00
2018-12-05T22:50:07.287Z,14.37
2018-12-05T22:52:35.950Z,10.30
2018-12-05T22:55:04.847Z,14.07
2018-12-05T22:57:33.435Z,11.30
2018-12-05T23:00:01.989Z,18.67
2018-12-05T23:02:30.548Z,11.30
2018-12-05T23:05:04.467Z,10.97
2018-12-05T23:07:33.345Z,10.40
2018-12-05T23:10:02.100Z,13.33
2018-12-05T23:12:30.707Z,13.60
2018-12-05T23:14:59.546Z,9.03
2018-12-05T23:17:28.948Z,9.37
2018-12-05T23:19:57.458Z,14.23
2018-12-05T23:22:26.112Z,11.37
2018-12-05T23:24:54.757Z,9.80
2018-12-05T23:27:23.333Z,11.37
2018-12-05T23:29:51.938Z,10.40
2018-12-05T23:32:20.503Z,12.37
2018-12-05T23:34:49.058Z,17.67
2018-12-05T23:37:17.586Z,12.37
2018-12-05T23:39:46.188Z,8.73
2018-12-05T23:42:14.731Z,13.67
2018-12-05T23:44:43.265Z,13.13
2018-12-05T23:47:11.850Z,14.87
2018-12-05T23:49:40.604Z,12.80
2018-12-05T23:52:09.082Z,11.87
2018-12-05T23:54:37.546Z,13.67
2018-12-05T23:57:06.142Z,19.43
2018-12-05T23:59:34.746Z,9.67
